sensor_id;sensor_type;location;lat;lon;timestamp;pressure;altitude;pressure_sealevel;temperature;humidity
70841;BME280;58465;51.534;9.934;2022-12-20T00:02:13;100266.88;;;6.64;72.86
70841;BME280;58465;51.534;9.934;2022-12-20T00:04:38;100261.56;;;6.66;73.03
70841;BME280;58465;51.534;9.934;2022-12-20T00:07:04;100263.31;;;6.73;72.93
70841;BME280;58465;51.534;9.934;2022-12-20T00:09:29;100267.78;;;6.73;73.02
70841;BME280;58465;51.534;9.934;2022-12-20T00:11:54;100268.63;;;6.76;73.10
70841;BME280;58465;51.534;9.934;2022-12-20T00:14:20;100265.09;;;6.82;73.09
70841;BME280;58465;51.534;9.934;2022-12-20T00:16:45;100264.13;;;6.95;73.03
70841;BME280;58465;51.534;9.934;2022-12-20T00:19:11;100264.13;;;6.96;72.63
70841;BME280;58465;51.534;9.934;2022-12-20T00:21:36;100252.63;;;6.97;72.74
70841;BME280;58465;51.534;9.934;2022-12-20T00:24:03;100256.16;;;6.98;72.57
70841;BME280;58465;51.534;9.934;2022-12-20T00:26:31;100242.00;;;6.99;72.45
70841;BME280;58465;51.534;9.934;2022-12-20T00:28:58;100243.75;;;7.00;72.53
70841;BME280;58465;51.534;9.934;2022-12-20T00:31:25;100249.03;;;7.03;72.62
70841;BME280;58465;51.534;9.934;2022-12-20T00:33:52;100232.22;;;7.02;72.51
70841;BME280;58465;51.534;9.934;2022-12-20T00:36:18;100230.44;;;7.04;72.65
70841;BME280;58465;51.534;9.934;2022-12-20T00:38:47;100214.56;;;6.97;72.97
70841;BME280;58465;51.534;9.934;2022-12-20T00:41:16;100218.09;;;7.00;73.08
70841;BME280;58465;51.534;9.934;2022-12-20T00:43:42;100222.47;;;7.11;72.84
70841;BME280;58465;51.534;9.934;2022-12-20T00:46:09;100225.97;;;7.14;72.75
70841;BME280;58465;51.534;9.934;2022-12-20T00:48:36;100213.59;;;7.10;73.00
70841;BME280;58465;51.534;9.934;2022-12-20T00:51:04;100214.41;;;7.21;72.81
70841;BME280;58465;51.534;9.934;2022-12-20T00:53:30;100209.06;;;7.23;72.94
70841;BME280;58465;51.534;9.934;2022-12-20T00:55:56;100214.38;;;7.29;72.87
70841;BME280;58465;51.534;9.934;2022-12-20T00:58:21;100209.94;;;7.29;72.84
70841;BME280;58465;51.534;9.934;2022-12-20T01:00:47;100203.69;;;7.32;72.91
70841;BME280;58465;51.534;9.934;2022-12-20T01:03:12;100215.22;;;7.34;72.79
70841;BME280;58465;51.534;9.934;2022-12-20T01:05:38;100211.66;;;7.35;73.08
70841;BME280;58465;51.534;9.934;2022-12-20T01:08:04;100203.69;;;7.32;73.15
70841;BME280;58465;51.534;9.934;2022-12-20T01:10:29;100201.09;;;7.30;73.37
70841;BME280;58465;51.534;9.934;2022-12-20T01:12:54;100191.28;;;7.40;72.99
70841;BME280;58465;51.534;9.934;2022-12-20T01:15:20;100197.44;;;7.43;73.02
70841;BME280;58465;51.534;9.934;2022-12-20T01:17:45;100194.84;;;7.33;73.55
70841;BME280;58465;51.534;9.934;2022-12-20T01:20:11;100198.31;;;7.44;73.13
70841;BME280;58465;51.534;9.934;2022-12-20T01:22:36;100207.16;;;7.46;73.18
70841;BME280;58465;51.534;9.934;2022-12-20T01:25:02;100198.28;;;7.47;72.72
70841;BME280;58465;51.534;9.934;2022-12-20T01:27:27;100206.28;;;7.41;73.29
70841;BME280;58465;51.534;9.934;2022-12-20T01:29:53;100202.78;;;7.39;73.36
70841;BME280;58465;51.534;9.934;2022-12-20T01:32:18;100198.38;;;7.36;73.67
70841;BME280;58465;51.534;9.934;2022-12-20T01:34:44;100203.69;;;7.38;73.39
70841;BME280;58465;51.534;9.934;2022-12-20T01:37:09;100199.25;;;7.38;73.42
70841;BME280;58465;51.534;9.934;2022-12-20T01:39:34;100201.84;;;7.44;73.26
70841;BME280;58465;51.534;9.934;2022-12-20T01:42:00;100200.97;;;7.42;73.47
70841;BME280;58465;51.534;9.934;2022-12-20T01:46:51;100194.75;;;7.50;73.05
70841;BME280;58465;51.534;9.934;2022-12-20T01:49:23;100191.13;;;7.57;73.02
70841;BME280;58465;51.534;9.934;2022-12-20T01:52:01;100195.47;;;7.67;72.60
70841;BME280;58465;51.534;9.934;2022-12-20T01:54:39;100197.28;;;7.63;72.74
70841;BME280;58465;51.534;9.934;2022-12-20T01:57:15;100192.84;;;7.64;72.55
70841;BME280;58465;51.534;9.934;2022-12-20T01:59:45;100193.72;;;7.66;72.43
70841;BME280;58465;51.534;9.934;2022-12-20T02:02:13;100190.25;;;7.56;72.92
70841;BME280;58465;51.534;9.934;2022-12-20T02:04:39;100186.69;;;7.57;72.81
70841;BME280;58465;51.534;9.934;2022-12-20T02:07:05;100182.25;;;7.59;73.01
70841;BME280;58465;51.534;9.934;2022-12-20T02:09:33;100169.00;;;7.53;73.08
70841;BME280;58465;51.534;9.934;2022-12-20T02:12:09;100170.84;;;7.47;73.30
70841;BME280;58465;51.534;9.934;2022-12-20T02:20:29;100176.91;;;7.61;72.57
70841;BME280;58465;51.534;9.934;2022-12-20T02:23:21;100161.91;;;7.57;72.63
70841;BME280;58465;51.534;9.934;2022-12-20T02:31:24;100177.78;;;7.61;72.52
70841;BME280;58465;51.534;9.934;2022-12-20T02:33:51;100170.69;;;7.62;72.38
70841;BME280;58465;51.534;9.934;2022-12-20T02:36:19;100171.66;;;7.52;72.70
70841;BME280;58465;51.534;9.934;2022-12-20T02:38:45;100183.19;;;7.52;72.64
70841;BME280;58465;51.534;9.934;2022-12-20T02:41:19;100178.81;;;7.43;72.80
70841;BME280;58465;51.534;9.934;2022-12-20T02:43:49;100176.19;;;7.40;73.13
70841;BME280;58465;51.534;9.934;2022-12-20T02:46:35;100178.81;;;7.42;73.03
70841;BME280;58465;51.534;9.934;2022-12-20T02:49:06;100169.13;;;7.39;73.16
70841;BME280;58465;51.534;9.934;2022-12-20T02:51:36;100169.09;;;7.41;73.00
70841;BME280;58465;51.534;9.934;2022-12-20T02:54:02;100162.00;;;7.44;72.81
70841;BME280;58465;51.534;9.934;2022-12-20T02:56:34;100155.84;;;7.39;73.14
70841;BME280;58465;51.534;9.934;2022-12-20T02:59:16;100141.63;;;7.45;72.79
70841;BME280;58465;51.534;9.934;2022-12-20T03:01:50;100129.22;;;7.44;72.78
70841;BME280;58465;51.534;9.934;2022-12-20T03:04:18;100124.81;;;7.41;73.17
70841;BME280;58465;51.534;9.934;2022-12-20T03:07:08;100130.91;;;7.54;72.63
70841;BME280;58465;51.534;9.934;2022-12-20T03:09:36;100128.22;;;7.59;72.67
70841;BME280;58465;51.534;9.934;2022-12-20T03:12:04;100129.09;;;7.58;72.86
70841;BME280;58465;51.534;9.934;2022-12-20T03:14:29;100129.94;;;7.60;72.69
70841;BME280;58465;51.534;9.934;2022-12-20T03:16:55;100135.16;;;7.72;72.15
70841;BME280;58465;51.534;9.934;2022-12-20T03:19:20;100134.31;;;7.68;72.83
70841;BME280;58465;51.534;9.934;2022-12-20T03:21:46;100127.16;;;7.78;72.38
70841;BME280;58465;51.534;9.934;2022-12-20T03:24:11;100127.19;;;7.73;72.92
70841;BME280;58465;51.534;9.934;2022-12-20T03:26:38;100128.03;;;7.77;72.89
70841;BME280;58465;51.534;9.934;2022-12-20T03:29:03;100126.31;;;7.70;73.21
70841;BME280;58465;51.534;9.934;2022-12-20T03:31:29;100120.91;;;7.80;72.84
70841;BME280;58465;51.534;9.934;2022-12-20T03:33:54;100135.06;;;7.82;72.69
70841;BME280;58465;51.534;9.934;2022-12-20T03:36:20;100137.78;;;7.76;72.82
70841;BME280;58465;51.534;9.934;2022-12-20T03:38:48;100138.59;;;7.83;72.47
70841;BME280;58465;51.534;9.934;2022-12-20T03:41:13;100151.03;;;7.79;72.62
70841;BME280;58465;51.534;9.934;2022-12-20T03:43:39;100149.25;;;7.81;72.48
70841;BME280;58465;51.534;9.934;2022-12-20T03:46:04;100151.88;;;7.85;72.16
70841;BME280;58465;51.534;9.934;2022-12-20T03:48:30;100156.47;;;7.69;72.88
70841;BME280;58465;51.534;9.934;2022-12-20T03:50:55;100153.88;;;7.61;73.33
70841;BME280;58465;51.534;9.934;2022-12-20T03:53:20;100149.41;;;7.66;73.32
70841;BME280;58465;51.534;9.934;2022-12-20T03:55:45;100145.88;;;7.61;73.45
70841;BME280;58465;51.534;9.934;2022-12-20T03:58:11;100148.47;;;7.70;73.36
70841;BME280;58465;51.534;9.934;2022-12-20T04:00:36;100148.47;;;7.72;73.49
70841;BME280;58465;51.534;9.934;2022-12-20T04:03:01;100146.56;;;7.85;73.35
70841;BME280;58465;51.534;9.934;2022-12-20T04:05:27;100142.16;;;7.82;73.48
70841;BME280;58465;51.534;9.934;2022-12-20T04:07:52;100135.94;;;7.81;73.63
70841;BME280;58465;51.534;9.934;2022-12-20T04:10:17;100124.50;;;7.78;73.83
70841;BME280;58465;51.534;9.934;2022-12-20T04:12:42;100116.63;;;7.66;74.26
70841;BME280;58465;51.534;9.934;2022-12-20T04:15:08;100125.47;;;7.66;74.42
70841;BME280;58465;51.534;9.934;2022-12-20T04:17:33;100137.88;;;7.66;74.48
70841;BME280;58465;51.534;9.934;2022-12-20T04:19:59;100136.03;;;7.72;74.25
70841;BME280;58465;51.534;9.934;2022-12-20T04:22:43;100123.66;;;7.71;74.26
70841;BME280;58465;51.534;9.934;2022-12-20T04:25:08;100130.66;;;7.80;74.04
70841;BME280;58465;51.534;9.934;2022-12-20T04:27:34;100117.44;;;7.74;74.29
70841;BME280;58465;51.534;9.934;2022-12-20T04:29:59;100111.22;;;7.73;74.36
70841;BME280;58465;51.534;9.934;2022-12-20T04:32:24;100119.09;;;7.82;73.91
70841;BME280;58465;51.534;9.934;2022-12-20T04:34:49;100114.69;;;7.81;73.78
70841;BME280;58465;51.534;9.934;2022-12-20T04:37:15;100125.28;;;7.86;73.88
70841;BME280;58465;51.534;9.934;2022-12-20T04:39:40;100128.84;;;7.85;74.16
70841;BME280;58465;51.534;9.934;2022-12-20T04:42:05;100142.06;;;7.93;74.05
70841;BME280;58465;51.534;9.934;2022-12-20T04:44:30;100154.38;;;7.98;73.67
70841;BME280;58465;51.534;9.934;2022-12-20T04:46:56;100147.28;;;8.02;73.89
70841;BME280;58465;51.534;9.934;2022-12-20T04:49:21;100145.50;;;8.01;73.75
70841;BME280;58465;51.534;9.934;2022-12-20T04:51:46;100131.34;;;7.99;73.56
70841;BME280;58465;51.534;9.934;2022-12-20T04:54:11;100123.41;;;7.97;73.65
70841;BME280;58465;51.534;9.934;2022-12-20T04:56:37;100133.19;;;7.92;73.71
70841;BME280;58465;51.534;9.934;2022-12-20T04:59:03;100120.88;;;7.82;74.49
70841;BME280;58465;51.534;9.934;2022-12-20T05:01:28;100121.78;;;7.79;74.90
70841;BME280;58465;51.534;9.934;2022-12-20T05:03:54;100123.56;;;7.80;75.13
70841;BME280;58465;51.534;9.934;2022-12-20T05:06:20;100116.53;;;7.76;75.19
70841;BME280;58465;51.534;9.934;2022-12-20T05:08:45;100127.06;;;7.84;75.22
70841;BME280;58465;51.534;9.934;2022-12-20T05:11:11;100136.75;;;7.91;75.04
70841;BME280;58465;51.534;9.934;2022-12-20T05:13:36;100125.22;;;7.91;74.88
70841;BME280;58465;51.534;9.934;2022-12-20T05:16:02;100113.66;;;7.95;74.86
70841;BME280;58465;51.534;9.934;2022-12-20T05:18:28;100106.63;;;7.89;75.17
70841;BME280;58465;51.534;9.934;2022-12-20T05:20:55;100107.47;;;7.93;75.33
70841;BME280;58465;51.534;9.934;2022-12-20T05:23:39;100104.69;;;8.06;74.94
70841;BME280;58465;51.534;9.934;2022-12-20T05:26:23;100090.41;;;8.12;74.53
70841;BME280;58465;51.534;9.934;2022-12-20T05:28:50;100102.69;;;8.24;74.39
70841;BME280;58465;51.534;9.934;2022-12-20T05:31:15;100098.16;;;8.30;74.19
70841;BME280;58465;51.534;9.934;2022-12-20T05:33:41;100091.06;;;8.34;74.15
70841;BME280;58465;51.534;9.934;2022-12-20T05:36:06;100101.72;;;8.31;74.46
70841;BME280;58465;51.534;9.934;2022-12-20T05:38:32;100107.78;;;8.45;73.85
70841;BME280;58465;51.534;9.934;2022-12-20T05:40:57;100107.78;;;8.45;73.77
70841;BME280;58465;51.534;9.934;2022-12-20T05:43:22;100107.72;;;8.49;73.58
70841;BME280;58465;51.534;9.934;2022-12-20T05:45:50;100102.41;;;8.48;73.81
70841;BME280;58465;51.534;9.934;2022-12-20T05:48:16;100108.56;;;8.53;73.63
70841;BME280;58465;51.534;9.934;2022-12-20T05:50:43;100105.03;;;8.51;73.85
70841;BME280;58465;51.534;9.934;2022-12-20T05:53:13;100112.03;;;8.58;73.36
70841;BME280;58465;51.534;9.934;2022-12-20T05:55:44;100104.00;;;8.61;73.33
70841;BME280;58465;51.534;9.934;2022-12-20T05:58:11;100097.84;;;8.57;73.36
70841;BME280;58465;51.534;9.934;2022-12-20T06:00:39;100091.69;;;8.54;73.56
70841;BME280;58465;51.534;9.934;2022-12-20T06:03:05;100094.34;;;8.54;73.42
70841;BME280;58465;51.534;9.934;2022-12-20T06:05:30;100083.59;;;8.62;73.13
70841;BME280;58465;51.534;9.934;2022-12-20T06:07:56;100089.75;;;8.65;73.72
70841;BME280;58465;51.534;9.934;2022-12-20T06:10:21;100089.84;;;8.59;73.27
70841;BME280;58465;51.534;9.934;2022-12-20T06:12:46;100092.47;;;8.61;73.28
70841;BME280;58465;51.534;9.934;2022-12-20T06:15:11;100088.03;;;8.61;73.31
70841;BME280;58465;51.534;9.934;2022-12-20T06:17:39;100095.13;;;8.62;73.30
70841;BME280;58465;51.534;9.934;2022-12-20T06:20:05;100078.31;;;8.57;73.53
70841;BME280;58465;51.534;9.934;2022-12-20T06:22:30;100079.19;;;8.57;73.63
70841;BME280;58465;51.534;9.934;2022-12-20T06:24:56;100078.19;;;8.66;73.19
70841;BME280;58465;51.534;9.934;2022-12-20T06:27:21;100086.28;;;8.60;73.30
70841;BME280;58465;51.534;9.934;2022-12-20T06:29:47;100089.84;;;8.59;73.19
70841;BME280;58465;51.534;9.934;2022-12-20T06:32:16;100096.91;;;8.63;73.30
70841;BME280;58465;51.534;9.934;2022-12-20T06:34:41;100097.69;;;8.68;72.84
70841;BME280;58465;51.534;9.934;2022-12-20T06:37:07;100100.31;;;8.73;72.53
70841;BME280;58465;51.534;9.934;2022-12-20T06:39:32;100096.81;;;8.66;72.57
70841;BME280;58465;51.534;9.934;2022-12-20T06:41:57;100094.25;;;8.60;72.78
70841;BME280;58465;51.534;9.934;2022-12-20T06:44:23;100094.41;;;8.49;73.09
70841;BME280;58465;51.534;9.934;2022-12-20T06:46:48;100091.00;;;8.38;73.62
70841;BME280;58465;51.534;9.934;2022-12-20T06:49:13;100093.72;;;8.34;73.90
70841;BME280;58465;51.534;9.934;2022-12-20T06:51:39;100094.66;;;8.27;74.34
70841;BME280;58465;51.534;9.934;2022-12-20T06:54:04;100085.84;;;8.25;74.42
70841;BME280;58465;51.534;9.934;2022-12-20T06:56:29;100080.56;;;8.18;74.42
70841;BME280;58465;51.534;9.934;2022-12-20T06:58:54;100080.63;;;8.15;74.65
70841;BME280;58465;51.534;9.934;2022-12-20T07:01:20;100080.66;;;8.14;74.74
70841;BME280;58465;51.534;9.934;2022-12-20T07:03:45;100080.56;;;8.18;74.52
70841;BME280;58465;51.534;9.934;2022-12-20T07:06:10;100084.97;;;8.23;73.97
70841;BME280;58465;51.534;9.934;2022-12-20T07:08:36;100077.84;;;8.25;74.00
70841;BME280;58465;51.534;9.934;2022-12-20T07:11:07;100084.94;;;8.26;73.71
70841;BME280;58465;51.534;9.934;2022-12-20T07:13:33;100090.28;;;8.23;73.55
70841;BME280;58465;51.534;9.934;2022-12-20T07:16:02;100083.19;;;8.25;73.56
70841;BME280;58465;51.534;9.934;2022-12-20T07:18:28;100089.44;;;8.17;73.79
70841;BME280;58465;51.534;9.934;2022-12-20T07:20:58;100087.66;;;8.18;73.83
70841;BME280;58465;51.534;9.934;2022-12-20T07:23:23;100072.66;;;8.15;73.84
70841;BME280;58465;51.534;9.934;2022-12-20T07:25:56;100061.16;;;8.12;73.54
70841;BME280;58465;51.534;9.934;2022-12-20T07:28:22;100066.38;;;8.18;73.38
70841;BME280;58465;51.534;9.934;2022-12-20T07:30:48;100082.31;;;8.21;73.21
70841;BME280;58465;51.534;9.934;2022-12-20T07:33:13;100074.22;;;8.29;72.74
70841;BME280;58465;51.534;9.934;2022-12-20T07:35:39;100060.03;;;8.30;72.78
70841;BME280;58465;51.534;9.934;2022-12-20T07:38:04;100071.56;;;8.32;72.55
70841;BME280;58465;51.534;9.934;2022-12-20T07:40:30;100058.34;;;8.23;72.18
70841;BME280;58465;51.534;9.934;2022-12-20T07:42:55;100062.72;;;8.27;72.15
70841;BME280;58465;51.534;9.934;2022-12-20T07:45:20;100054.72;;;8.30;71.96
70841;BME280;58465;51.534;9.934;2022-12-20T07:47:46;100058.19;;;8.38;71.53
70841;BME280;58465;51.534;9.934;2022-12-20T07:50:11;100052.84;;;8.38;71.67
70841;BME280;58465;51.534;9.934;2022-12-20T07:52:37;100057.16;;;8.46;71.36
70841;BME280;58465;51.534;9.934;2022-12-20T07:55:05;100063.50;;;8.38;71.66
70841;BME280;58465;51.534;9.934;2022-12-20T07:57:36;100053.75;;;8.38;71.59
70841;BME280;58465;51.534;9.934;2022-12-20T08:00:04;100061.59;;;8.46;71.50
70841;BME280;58465;51.534;9.934;2022-12-20T08:02:57;100060.78;;;8.42;71.47
70841;BME280;58465;51.534;9.934;2022-12-20T08:05:25;100063.47;;;8.41;71.66
70841;BME280;58465;51.534;9.934;2022-12-20T08:07:52;100063.38;;;8.47;71.48
70841;BME280;58465;51.534;9.934;2022-12-20T08:10:19;100056.38;;;8.40;71.77
70841;BME280;58465;51.534;9.934;2022-12-20T08:12:45;100044.78;;;8.45;71.58
70841;BME280;58465;51.534;9.934;2022-12-20T08:15:12;100035.03;;;8.44;71.71
70841;BME280;58465;51.534;9.934;2022-12-20T08:17:37;100036.72;;;8.51;71.50
70841;BME280;58465;51.534;9.934;2022-12-20T08:20:03;100042.91;;;8.52;71.64
70841;BME280;58465;51.534;9.934;2022-12-20T08:22:30;100042.75;;;8.64;71.42
70841;BME280;58465;51.534;9.934;2022-12-20T08:24:55;100038.09;;;8.77;70.77
70841;BME280;58465;51.534;9.934;2022-12-20T08:27:20;100050.53;;;8.75;70.76
70841;BME280;58465;51.534;9.934;2022-12-20T08:29:46;100037.16;;;8.81;70.61
70841;BME280;58465;51.534;9.934;2022-12-20T08:32:11;100038.06;;;8.78;71.05
70841;BME280;58465;51.534;9.934;2022-12-20T08:34:38;100040.59;;;8.87;70.88
70841;BME280;58465;51.534;9.934;2022-12-20T08:37:03;100047.56;;;8.96;70.77
70841;BME280;58465;51.534;9.934;2022-12-20T08:39:29;100041.31;;;8.97;70.58
70841;BME280;58465;51.534;9.934;2022-12-20T08:41:54;100032.47;;;8.95;70.65
70841;BME280;58465;51.534;9.934;2022-12-20T08:44:20;100029.88;;;8.93;70.86
70841;BME280;58465;51.534;9.934;2022-12-20T08:46:45;100030.66;;;8.97;70.50
70841;BME280;58465;51.534;9.934;2022-12-20T08:49:11;100035.06;;;9.01;70.51
70841;BME280;58465;51.534;9.934;2022-12-20T08:51:36;100026.97;;;9.06;70.45
70841;BME280;58465;51.534;9.934;2022-12-20T08:54:01;100028.59;;;9.16;69.97
70841;BME280;58465;51.534;9.934;2022-12-20T08:56:27;100023.38;;;9.08;70.19
70841;BME280;58465;51.534;9.934;2022-12-20T08:58:52;100015.13;;;9.23;69.83
70841;BME280;58465;51.534;9.934;2022-12-20T09:01:19;100026.72;;;9.21;69.79
70841;BME280;58465;51.534;9.934;2022-12-20T09:03:46;100017.78;;;9.23;69.93
70841;BME280;58465;51.534;9.934;2022-12-20T09:06:21;100020.50;;;9.22;70.05
70841;BME280;58465;51.534;9.934;2022-12-20T09:08:47;100015.00;;;9.31;69.82
70841;BME280;58465;51.534;9.934;2022-12-20T09:11:16;100020.28;;;9.32;69.79
70841;BME280;58465;51.534;9.934;2022-12-20T09:13:43;99999.66;;;9.42;69.25
70841;BME280;58465;51.534;9.934;2022-12-20T09:16:10;99999.75;;;9.39;69.58
70841;BME280;58465;51.534;9.934;2022-12-20T09:18:36;100009.44;;;9.43;69.41
70841;BME280;58465;51.534;9.934;2022-12-20T09:21:03;100003.19;;;9.44;69.33
70841;BME280;58465;51.534;9.934;2022-12-20T09:23:30;100005.09;;;9.39;69.32
70841;BME280;58465;51.534;9.934;2022-12-20T09:26:01;100006.97;;;9.32;69.48
70841;BME280;58465;51.534;9.934;2022-12-20T09:28:28;100002.47;;;9.36;69.56
70841;BME280;58465;51.534;9.934;2022-12-20T09:30:57;100008.81;;;9.29;69.55
70841;BME280;58465;51.534;9.934;2022-12-20T09:33:22;100002.44;;;9.38;69.39
70841;BME280;58465;51.534;9.934;2022-12-20T09:35:48;100015.66;;;9.42;69.30
70841;BME280;58465;51.534;9.934;2022-12-20T09:38:13;100008.44;;;9.50;69.07
70841;BME280;58465;51.534;9.934;2022-12-20T09:40:44;100018.97;;;9.56;69.00
70841;BME280;58465;51.534;9.934;2022-12-20T09:43:11;100031.28;;;9.62;68.52
70841;BME280;58465;51.534;9.934;2022-12-20T09:45:36;100019.53;;;9.72;68.56
70841;BME280;58465;51.534;9.934;2022-12-20T09:48:02;100017.97;;;9.62;68.71
70841;BME280;58465;51.534;9.934;2022-12-20T09:50:57;100008.94;;;9.71;68.15
70841;BME280;58465;51.534;9.934;2022-12-20T09:53:40;100006.25;;;9.71;68.19
70841;BME280;58465;51.534;9.934;2022-12-20T09:56:14;100001.78;;;9.71;68.25
70841;BME280;58465;51.534;9.934;2022-12-20T10:01:22;99980.59;;;9.63;68.26
70841;BME280;58465;51.534;9.934;2022-12-20T10:03:52;99977.69;;;9.77;67.93
70841;BME280;58465;51.534;9.934;2022-12-20T10:08:58;99963.06;;;9.95;67.46
70841;BME280;58465;51.534;9.934;2022-12-20T10:17:38;99956.72;;;10.00;67.28
70841;BME280;58465;51.534;9.934;2022-12-20T10:20:16;99956.91;;;9.91;67.54
70841;BME280;58465;51.534;9.934;2022-12-20T10:25:17;99956.00;;;10.34;66.64
70841;BME280;58465;51.534;9.934;2022-12-20T10:27:44;99959.28;;;10.47;66.35
70841;BME280;58465;51.534;9.934;2022-12-20T10:30:16;99952.69;;;10.61;65.80
70841;BME280;58465;51.534;9.934;2022-12-20T10:32:44;99957.53;;;10.81;65.42
70841;BME280;58465;51.534;9.934;2022-12-20T10:37:35;99939.38;;;10.95;64.71
70841;BME280;58465;51.534;9.934;2022-12-20T10:40:01;99943.47;;;10.74;65.27
70841;BME280;58465;51.534;9.934;2022-12-20T10:42:38;99928.09;;;10.84;64.86
70841;BME280;58465;51.534;9.934;2022-12-20T10:45:31;99923.00;;;10.73;65.12
70841;BME280;58465;51.534;9.934;2022-12-20T10:47:59;99940.13;;;10.66;65.14
70841;BME280;58465;51.534;9.934;2022-12-20T10:50:25;99922.38;;;10.64;65.48
70841;BME280;58465;51.534;9.934;2022-12-20T10:55:39;99910.78;;;10.28;66.02
70841;BME280;58465;51.534;9.934;2022-12-20T10:58:13;99903.44;;;10.37;65.91
70841;BME280;58465;51.534;9.934;2022-12-20T11:00:40;99903.50;;;10.34;66.02
70841;BME280;58465;51.534;9.934;2022-12-20T11:03:13;99900.00;;;10.31;66.03
70841;BME280;58465;51.534;9.934;2022-12-20T11:05:40;99900.53;;;10.47;65.72
70841;BME280;58465;51.534;9.934;2022-12-20T11:08:14;99890.53;;;10.55;65.54
70841;BME280;58465;51.534;9.934;2022-12-20T11:10:40;99896.59;;;10.61;65.21
70841;BME280;58465;51.534;9.934;2022-12-20T11:13:18;99882.38;;;10.61;65.15
70841;BME280;58465;51.534;9.934;2022-12-20T11:15:48;99885.03;;;10.61;64.87
70841;BME280;58465;51.534;9.934;2022-12-20T11:18:21;99876.97;;;10.64;65.05
70841;BME280;58465;51.534;9.934;2022-12-20T11:21:02;99859.16;;;10.64;65.04
70841;BME280;58465;51.534;9.934;2022-12-20T11:23:38;99866.81;;;10.76;64.76
70841;BME280;58465;51.534;9.934;2022-12-20T11:26:28;99868.53;;;10.79;64.48
70841;BME280;58465;51.534;9.934;2022-12-20T11:32:01;99862.72;;;10.96;64.05
70841;BME280;58465;51.534;9.934;2022-12-20T11:34:39;99863.53;;;10.99;64.33
70841;BME280;58465;51.534;9.934;2022-12-20T11:37:25;99853.19;;;10.87;64.31
70841;BME280;58465;51.534;9.934;2022-12-20T11:40:23;99867.50;;;10.85;64.36
70841;BME280;58465;51.534;9.934;2022-12-20T11:53:40;99870.47;;;10.74;63.92
70841;BME280;58465;51.534;9.934;2022-12-20T11:56:15;99867.00;;;10.69;63.88
70841;BME280;58465;51.534;9.934;2022-12-20T12:01:26;99838.38;;;10.40;64.56
70841;BME280;58465;51.534;9.934;2022-12-20T12:04:03;99840.44;;;10.29;64.86
70841;BME280;58465;51.534;9.934;2022-12-20T12:06:41;99839.53;;;10.30;64.92
70841;BME280;58465;51.534;9.934;2022-12-20T12:09:21;99840.50;;;10.27;65.10
70841;BME280;58465;51.534;9.934;2022-12-20T12:14:56;99833.28;;;10.31;65.36
70841;BME280;58465;51.534;9.934;2022-12-20T12:18:00;99834.72;;;10.44;65.05
70841;BME280;58465;51.534;9.934;2022-12-20T12:20:47;99820.50;;;10.44;64.97
70841;BME280;58465;51.534;9.934;2022-12-20T12:23:20;99816.88;;;10.46;64.87
70841;BME280;58465;51.534;9.934;2022-12-20T12:25:51;99814.00;;;10.54;65.00
70841;BME280;58465;51.534;9.934;2022-12-20T12:28:18;99816.44;;;10.63;64.70
70841;BME280;58465;51.534;9.934;2022-12-20T12:30:51;99811.59;;;10.77;64.14
70841;BME280;58465;51.534;9.934;2022-12-20T12:33:27;99802.91;;;10.69;64.51
70841;BME280;58465;51.534;9.934;2022-12-20T12:36:09;99797.31;;;10.46;64.98
70841;BME280;58465;51.534;9.934;2022-12-20T12:38:54;99786.59;;;10.47;65.12
70841;BME280;58465;51.534;9.934;2022-12-20T12:44:52;99789.59;;;10.35;65.51
70841;BME280;58465;51.534;9.934;2022-12-20T12:47:33;99777.00;;;10.38;65.45
70841;BME280;58465;51.534;9.934;2022-12-20T12:50:01;99795.59;;;10.43;65.35
70841;BME280;58465;51.534;9.934;2022-12-20T12:52:49;99804.56;;;10.40;65.34
70841;BME280;58465;51.534;9.934;2022-12-20T12:55:47;99803.94;;;10.65;64.65
70841;BME280;58465;51.534;9.934;2022-12-20T12:58:30;99794.47;;;10.52;65.03
70841;BME280;58465;51.534;9.934;2022-12-20T13:01:09;99793.59;;;10.51;65.01
70841;BME280;58465;51.534;9.934;2022-12-20T13:19:34;99771.28;;;10.54;65.30
70841;BME280;58465;51.534;9.934;2022-12-20T13:24:51;99767.66;;;10.56;65.23
70841;BME280;58465;51.534;9.934;2022-12-20T13:27:36;99763.34;;;10.51;65.49
70841;BME280;58465;51.534;9.934;2022-12-20T13:38:02;99759.19;;;10.39;65.56
70841;BME280;58465;51.534;9.934;2022-12-20T13:40:41;99762.84;;;10.36;65.74
70841;BME280;58465;51.534;9.934;2022-12-20T13:46:12;99760.34;;;10.29;65.58
70841;BME280;58465;51.534;9.934;2022-12-20T13:51:16;99758.78;;;10.22;65.53
70841;BME280;58465;51.534;9.934;2022-12-20T13:53:57;99753.66;;;10.11;65.82
70841;BME280;58465;51.534;9.934;2022-12-20T13:59:03;99759.03;;;10.10;65.75
70841;BME280;58465;51.534;9.934;2022-12-20T14:01:29;99767.78;;;10.16;65.74
70841;BME280;58465;51.534;9.934;2022-12-20T14:04:03;99768.81;;;10.11;65.79
70841;BME280;58465;51.534;9.934;2022-12-20T14:06:29;99768.94;;;10.06;65.81
70841;BME280;58465;51.534;9.934;2022-12-20T14:08:54;99773.22;;;10.12;65.82
70841;BME280;58465;51.534;9.934;2022-12-20T14:11:22;99768.94;;;10.06;65.75
70841;BME280;58465;51.534;9.934;2022-12-20T14:13:53;99761.91;;;10.02;65.78
70841;BME280;58465;51.534;9.934;2022-12-20T14:16:19;99753.41;;;9.86;66.26
70841;BME280;58465;51.534;9.934;2022-12-20T14:19:01;99754.09;;;9.94;66.05
70841;BME280;58465;51.534;9.934;2022-12-20T14:21:27;99754.94;;;9.96;65.68
70841;BME280;58465;51.534;9.934;2022-12-20T14:23:55;99757.69;;;9.93;65.72
70841;BME280;58465;51.534;9.934;2022-12-20T14:26:24;99752.28;;;9.96;65.79
70841;BME280;58465;51.534;9.934;2022-12-20T14:28:53;99751.41;;;9.96;65.78
70841;BME280;58465;51.534;9.934;2022-12-20T14:31:36;99737.34;;;9.89;65.84
70841;BME280;58465;51.534;9.934;2022-12-20T14:36:30;99744.06;;;10.04;65.78
70841;BME280;58465;51.534;9.934;2022-12-20T14:38:56;99722.91;;;9.98;65.74
70841;BME280;58465;51.534;9.934;2022-12-20T14:41:38;99719.72;;;9.82;66.14
70841;BME280;58465;51.534;9.934;2022-12-20T14:46:33;99743.56;;;9.90;66.06